Time;durP1;ratioP1;P1;durP2;ratioP2;P2;SDS_P1;SDS_P2;PMS_P1;PMS_P2;Temp;Humidity;BMP_temperature;BMP_pressure;BME280_temperature;BME280_humidity;BME280_pressure;Samples;Min_cycle;Max_cycle;Signal;HPM_P1;HPM_P2
2022/01/10 00:02:23;;;;;;;8.27;3.90;;;17.60;53.60;18.30;100236.00;;;;5032081;28;20171;-40
2022/01/10 00:04:50;;;;;;;5.93;3.77;;;17.50;53.60;18.20;100240.00;;;;5031445;28;20228;-40
2022/01/10 00:07:16;;;;;;;6.20;3.90;;;17.60;53.80;18.20;100249.00;;;;5031927;28;20211;-39
2022/01/10 00:09:41;;;;;;;5.17;3.80;;;17.50;53.90;18.20;100246.00;;;;5032313;28;20175;-39
2022/01/10 00:12:07;;;;;;;5.50;3.77;;;17.40;54.10;18.20;100253.00;;;;5040492;28;20647;-39
2022/01/10 00:14:33;;;;;;;6.37;4.07;;;17.40;54.20;18.10;100263.00;;;;5051387;28;20217;-40
2022/01/10 00:16:59;;;;;;;4.60;3.40;;;17.40;54.50;18.10;100265.00;;;;5051437;28;20194;-39
2022/01/10 00:19:24;;;;;;;7.70;3.90;;;17.30;54.50;18.10;100252.00;;;;5051772;28;20601;-40
2022/01/10 00:21:50;;;;;;;4.40;3.53;;;17.30;54.60;18.10;100271.00;;;;5050498;28;20174;-39
2022/01/10 00:24:16;;;;;;;4.77;3.57;;;17.30;54.80;18.00;100263.00;;;;5053831;28;20166;-41
2022/01/10 00:26:41;;;;;;;5.33;3.60;;;17.20;54.90;18.00;100267.00;;;;5054919;28;20189;-40
2022/01/10 00:29:07;;;;;;;5.87;3.43;;;17.20;55.00;18.00;100273.00;;;;5051922;28;20719;-39
2022/01/10 00:31:33;;;;;;;5.23;3.63;;;17.10;55.00;17.90;100259.00;;;;5051698;28;20178;-39
2022/01/10 00:33:59;;;;;;;4.17;3.23;;;17.10;55.30;17.90;100269.00;;;;5051424;28;20174;-39
2022/01/10 00:36:25;;;;;;;4.43;3.30;;;17.10;55.30;17.90;100257.00;;;;5051614;28;20170;-39
2022/01/10 00:38:51;;;;;;;4.90;3.37;;;17.00;55.40;17.80;100268.00;;;;5051500;28;20278;-39
2022/01/10 00:41:17;;;;;;;4.90;3.43;;;17.00;55.40;17.80;100264.00;;;;5049036;28;20597;-39
2022/01/10 00:43:46;;;;;;;4.00;3.30;;;17.00;55.60;17.80;100258.00;;;;5048302;28;20597;-42
2022/01/10 00:46:12;;;;;;;3.57;3.10;;;16.90;55.50;17.80;100272.00;;;;5048090;28;20177;-40
2022/01/10 00:48:38;;;;;;;4.10;3.40;;;16.90;55.60;17.80;100284.00;;;;5048216;28;20298;-39
2022/01/10 00:51:04;;;;;;;4.13;3.47;;;16.90;55.80;17.70;100297.00;;;;5048429;28;20193;-38
2022/01/10 00:53:30;;;;;;;4.03;3.23;;;16.80;55.70;17.70;100304.00;;;;5047737;28;20756;-40
2022/01/10 00:55:55;;;;;;;4.07;3.50;;;16.80;55.80;17.70;100303.00;;;;5048152;28;20171;-40
2022/01/10 00:58:21;;;;;;;4.00;3.20;;;16.80;56.50;17.60;100297.00;;;;5048198;28;20307;-39
2022/01/10 01:00:47;;;;;;;3.80;3.17;;;16.70;56.00;17.60;100302.00;;;;5048139;28;20175;-39
2022/01/10 01:03:13;;;;;;;3.60;3.13;;;16.70;56.00;17.60;100311.00;;;;5047906;28;20182;-38
2022/01/10 01:05:41;;;;;;;3.30;3.00;;;16.70;56.10;17.60;100312.00;;;;5047604;28;20267;-39
2022/01/10 01:08:08;;;;;;;4.83;3.10;;;16.60;56.00;17.50;100312.00;;;;5047987;28;20206;-39
2022/01/10 01:11:07;;;;;;;4.33;3.50;;;16.60;56.00;17.50;100316.00;;;;5048125;28;20714;-39
2022/01/10 01:16:19;;;;;;;3.77;3.20;;;16.50;56.20;17.40;100326.00;;;;5046916;28;20154;-38
2022/01/10 01:24:00;;;;;;;3.50;2.87;;;16.40;56.30;17.40;100337.00;;;;5047561;28;20185;-39
2022/01/10 01:26:25;;;;;;;4.53;3.30;;;16.40;56.60;17.40;100335.00;;;;5049757;28;20166;-40
2022/01/10 01:28:51;;;;;;;3.40;3.10;;;16.40;56.40;17.30;100348.00;;;;5063482;28;20247;-39
2022/01/10 01:31:17;;;;;;;3.70;3.00;;;16.40;56.60;17.30;100355.00;;;;5053329;28;20757;-39
2022/01/10 01:33:42;;;;;;;3.93;3.10;;;16.30;56.50;17.30;100372.00;;;;5052320;28;20170;-39
2022/01/10 01:36:08;;;;;;;3.87;3.20;;;16.30;56.60;17.20;100369.00;;;;5049111;28;20551;-39
2022/01/10 01:38:34;;;;;;;3.97;3.37;;;16.30;56.70;17.20;100377.00;;;;5049727;28;20191;-38
2022/01/10 01:41:18;;;;;;;3.60;3.30;;;16.20;56.70;17.20;100376.00;;;;5049429;28;20266;-39
2022/01/10 01:43:45;;;;;;;3.80;3.40;;;16.20;56.70;17.10;100379.00;;;;5048422;28;20174;-40
2022/01/10 01:46:10;;;;;;;3.40;2.90;;;16.20;56.80;17.10;100388.00;;;;5048257;28;20658;-40
2022/01/10 01:48:36;;;;;;;4.47;3.20;;;16.20;56.80;17.10;100394.00;;;;5047878;28;20206;-40
2022/01/10 01:51:03;;;;;;;3.90;3.30;;;16.10;56.80;17.00;100394.00;;;;5048429;28;20182;-39
2022/01/10 01:53:30;;;;;;;4.00;3.00;;;16.10;56.80;17.00;100390.00;;;;5046966;28;20170;-40
2022/01/10 01:55:57;;;;;;;3.20;2.90;;;16.10;56.90;17.00;100409.00;;;;5047228;28;20208;-39
2022/01/10 01:58:23;;;;;;;3.53;3.00;;;16.10;57.00;17.00;100409.00;;;;5047933;28;20190;-39
2022/01/10 02:00:49;;;;;;;3.97;2.90;;;16.00;56.90;16.90;100416.00;;;;5047844;28;20244;-39
2022/01/10 02:03:14;;;;;;;3.73;3.37;;;16.00;57.00;16.90;100409.00;;;;5046894;28;20182;-39
2022/01/10 02:05:40;;;;;;;3.43;3.03;;;15.90;56.90;16.90;100414.00;;;;5046485;28;20812;-39
2022/01/10 02:08:07;;;;;;;3.63;2.87;;;15.90;57.10;16.90;100422.00;;;;5046312;28;20205;-39
2022/01/10 02:10:33;;;;;;;3.63;3.20;;;15.90;57.20;16.90;100430.00;;;;5029441;28;20259;-39
2022/01/10 02:12:59;;;;;;;3.13;2.83;;;15.90;57.20;16.80;100420.00;;;;5046283;28;20171;-38
2022/01/10 02:15:41;;;;;;;3.50;3.20;;;15.80;57.00;16.80;100417.00;;;;5046637;28;20178;-38
2022/01/10 02:18:07;;;;;;;3.37;3.00;;;15.80;57.30;16.80;100440.00;;;;5046310;28;20198;-38
2022/01/10 02:20:33;;;;;;;3.90;3.10;;;15.80;57.20;16.80;100439.00;;;;5046487;28;20182;-39
2022/01/10 02:23:00;;;;;;;3.27;2.97;;;15.70;57.20;16.80;100441.00;;;;5046310;28;20649;-40
2022/01/10 02:25:26;;;;;;;3.50;3.03;;;15.80;57.10;16.50;100447.00;;;;5046139;28;20253;-39
2022/01/10 02:27:53;;;;;;;3.10;2.80;;;15.70;57.10;16.70;100447.00;;;;5046107;28;20857;-39
2022/01/10 02:30:18;;;;;;;2.90;2.70;;;15.70;57.40;16.70;100441.00;;;;5046577;28;20174;-38
2022/01/10 02:32:45;;;;;;;3.10;2.80;;;15.70;57.40;16.70;100450.00;;;;5045859;28;20170;-39
2022/01/10 02:35:22;;;;;;;3.00;2.80;;;15.70;57.50;16.70;100456.00;;;;5046400;28;20516;-39
2022/01/10 02:37:50;;;;;;;3.20;2.90;;;15.60;57.30;16.60;100452.00;;;;5046739;28;20289;-38
2022/01/10 02:40:19;;;;;;;3.40;3.10;;;15.60;57.40;16.60;100467.00;;;;5045677;28;20178;-40
2022/01/10 02:42:44;;;;;;;3.30;3.00;;;15.60;57.30;16.60;100469.00;;;;5046584;28;20182;-39
2022/01/10 02:45:10;;;;;;;3.40;3.10;;;15.60;57.60;16.50;100475.00;;;;5046027;28;20193;-39
2022/01/10 02:47:36;;;;;;;3.43;3.13;;;15.60;57.60;16.50;100485.00;;;;5046196;28;21029;-40
2022/01/10 02:50:04;;;;;;;3.30;3.00;;;15.60;57.60;16.50;100495.00;;;;5046295;28;20178;-39
2022/01/10 02:52:30;;;;;;;3.97;3.23;;;15.50;57.60;16.50;100483.00;;;;5045914;28;20174;-39
2022/01/10 02:55:00;;;;;;;3.40;3.07;;;15.50;57.80;16.50;100497.00;;;;5045905;28;20826;-39
2022/01/10 02:57:26;;;;;;;3.43;3.13;;;15.50;57.60;16.50;100498.00;;;;5045519;28;20186;-38
2022/01/10 02:59:52;;;;;;;3.97;2.97;;;15.50;57.60;16.40;100499.00;;;;5045808;28;20754;-40
2022/01/10 03:02:20;;;;;;;3.30;3.00;;;15.50;57.60;16.40;100497.00;;;;5045517;28;20212;-39
2022/01/10 03:04:46;;;;;;;3.43;3.13;;;15.40;57.50;16.40;100505.00;;;;5045340;28;20201;-40
2022/01/10 03:07:16;;;;;;;2.90;2.70;;;15.40;57.60;16.30;100505.00;;;;5045551;28;20586;-39
2022/01/10 03:09:41;;;;;;;3.40;3.10;;;15.40;57.70;16.30;100503.00;;;;5044478;28;20146;-39
2022/01/10 03:12:09;;;;;;;3.10;2.83;;;15.40;57.70;16.30;100515.00;;;;5045597;28;20166;-39
2022/01/10 03:14:38;;;;;;;3.43;3.13;;;15.40;57.60;16.20;100510.00;;;;5045686;28;20193;-38
2022/01/10 03:17:04;;;;;;;3.00;2.80;;;15.30;57.50;16.20;100520.00;;;;5046197;28;20193;-39
2022/01/10 03:19:29;;;;;;;3.40;3.10;;;15.30;57.70;16.20;100521.00;;;;5048586;28;20189;-40
2022/01/10 03:21:55;;;;;;;3.30;3.00;;;15.30;57.80;16.20;100522.00;;;;5054863;28;20647;-39
2022/01/10 03:24:21;;;;;;;3.20;2.90;;;15.30;57.80;16.20;100533.00;;;;5047118;28;20174;-39
2022/01/10 03:26:46;;;;;;;3.20;2.90;;;15.20;57.70;16.20;100534.00;;;;5047757;28;20193;-40
2022/01/10 03:29:12;;;;;;;3.27;2.97;;;15.20;58.30;16.20;100463.00;;;;5047095;28;20174;-38
2022/01/10 03:31:38;;;;;;;4.00;3.00;;;15.20;58.00;16.20;100549.00;;;;5048103;28;20173;-38
2022/01/10 03:34:06;;;;;;;2.97;2.70;;;15.20;57.70;16.20;100542.00;;;;5046003;28;20166;-39
2022/01/10 03:36:32;;;;;;;3.70;3.00;;;15.30;57.80;16.20;100557.00;;;;5045767;28;20546;-38
2022/01/10 03:38:58;;;;;;;3.57;3.27;;;15.20;57.70;16.10;100549.00;;;;5045393;28;20215;-39
2022/01/10 03:41:23;;;;;;;3.10;2.80;;;15.20;57.40;16.20;100567.00;;;;5045663;28;20259;-39
2022/01/10 03:43:49;;;;;;;2.97;2.70;;;15.20;57.20;16.20;100568.00;;;;5045168;28;20173;-39
2022/01/10 03:46:15;;;;;;;3.67;3.20;;;15.20;57.70;16.20;100562.00;;;;5045347;28;20159;-39
2022/01/10 03:48:40;;;;;;;3.60;3.00;;;15.20;57.00;16.20;100565.00;;;;5044823;28;20224;-38
2022/01/10 03:51:06;;;;;;;2.87;2.67;;;15.20;57.00;16.20;100564.00;;;;5045802;28;20246;-39
2022/01/10 03:53:32;;;;;;;4.07;2.93;;;15.10;57.10;16.20;100561.00;;;;5045120;28;20807;-39
2022/01/10 03:55:57;;;;;;;3.60;3.30;;;15.10;57.50;16.20;100562.00;;;;5046399;28;20170;-39
2022/01/10 03:58:23;;;;;;;3.33;3.03;;;15.10;57.30;16.20;100568.00;;;;5045214;28;20197;-39
2022/01/10 04:00:49;;;;;;;3.50;3.20;;;15.20;57.30;16.20;100578.00;;;;5045245;28;20246;-39
2022/01/10 04:03:15;;;;;;;3.47;3.00;;;15.10;57.00;16.20;100596.00;;;;5045189;28;20798;-40
2022/01/10 04:05:40;;;;;;;3.20;2.90;;;15.10;57.10;16.10;100576.00;;;;5047798;28;20170;-40
2022/01/10 04:08:06;;;;;;;3.13;2.90;;;15.10;57.30;16.10;100578.00;;;;5050192;28;20202;-40
2022/01/10 04:10:32;;;;;;;2.90;2.60;;;15.00;57.20;16.10;100579.00;;;;5045181;28;20166;-39
2022/01/10 04:12:57;;;;;;;2.97;2.70;;;15.00;57.50;16.10;100590.00;;;;5045100;28;20254;-39
2022/01/10 04:15:23;;;;;;;2.87;2.67;;;15.00;57.40;16.10;100594.00;;;;5045088;28;20655;-38
2022/01/10 04:17:55;;;;;;;3.13;2.83;;;15.00;57.50;16.10;100604.00;;;;5048748;28;20206;-40
2022/01/10 04:20:20;;;;;;;3.00;2.80;;;15.00;57.50;16.00;100612.00;;;;5049474;28;20183;-39
2022/01/10 04:22:46;;;;;;;3.20;2.90;;;14.90;57.40;16.00;100606.00;;;;5048700;28;20241;-39
2022/01/10 04:25:12;;;;;;;2.87;2.67;;;14.90;57.20;16.00;100607.00;;;;5048118;28;20659;-39
2022/01/10 04:27:37;;;;;;;7.27;2.90;;;14.90;57.10;16.00;100616.00;;;;5048930;28;20210;-39
2022/01/10 04:30:04;;;;;;;4.47;3.07;;;14.90;58.40;16.00;100621.00;;;;5049272;28;20162;-38
2022/01/10 04:32:32;;;;;;;3.77;2.67;;;14.90;57.60;16.00;100629.00;;;;5048782;28;20181;-40
2022/01/10 04:34:57;;;;;;;4.67;2.80;;;14.80;57.90;15.90;100634.00;;;;5048739;28;20174;-39
2022/01/10 04:37:23;;;;;;;5.07;2.80;;;14.80;57.60;16.00;100640.00;;;;5048445;28;20195;-38
2022/01/10 04:39:49;;;;;;;3.13;2.80;;;14.80;57.40;15.90;100649.00;;;;5049079;28;20179;-39
2022/01/10 04:42:14;;;;;;;3.10;2.80;;;14.80;57.40;15.90;100662.00;;;;5048757;28;20177;-39
2022/01/10 04:44:41;;;;;;;3.40;2.90;;;14.80;57.40;15.90;100668.00;;;;5048905;28;20171;-38
2022/01/10 04:47:07;;;;;;;3.77;2.80;;;14.80;57.30;15.90;100682.00;;;;5048400;28;20698;-40
2022/01/10 04:49:52;;;;;;;4.93;3.00;;;14.80;57.10;15.90;100679.00;;;;5048455;28;20166;-43
2022/01/10 04:52:17;;;;;;;3.30;3.00;;;14.80;56.80;15.90;100683.00;;;;5049017;28;20162;-38
2022/01/10 04:54:43;;;;;;;3.40;3.10;;;14.70;56.70;15.90;100696.00;;;;5048934;28;20167;-39
2022/01/10 04:57:09;;;;;;;4.00;3.00;;;14.80;56.70;15.80;100707.00;;;;5048261;28;20198;-38
2022/01/10 04:59:35;;;;;;;3.83;3.00;;;14.70;56.50;15.80;100704.00;;;;5048471;28;20734;-38
2022/01/10 05:02:00;;;;;;;3.40;3.10;;;14.70;56.20;15.80;100710.00;;;;5048109;28;20175;-39
2022/01/10 05:04:26;;;;;;;3.97;3.40;;;14.70;56.30;15.80;100710.00;;;;5048193;28;20177;-38
2022/01/10 05:06:52;;;;;;;3.30;3.00;;;14.70;56.40;15.80;100717.00;;;;5048064;28;20191;-39
2022/01/10 05:09:17;;;;;;;3.30;2.93;;;14.60;56.40;15.80;100721.00;;;;5048045;28;20254;-39
2022/01/10 05:11:45;;;;;;;4.10;3.00;;;14.60;56.50;15.80;100728.00;;;;5049242;28;20171;-45
2022/01/10 05:14:11;;;;;;;3.40;3.03;;;14.60;56.50;15.70;100724.00;;;;5054818;28;20400;-39
2022/01/10 05:16:40;;;;;;;3.67;3.07;;;14.60;57.00;15.70;100735.00;;;;5050762;28;20200;-40
2022/01/10 05:19:06;;;;;;;4.83;3.10;;;14.60;56.90;15.70;100744.00;;;;5049608;28;20241;-39
2022/01/10 05:21:31;;;;;;;4.10;2.80;;;14.60;56.90;15.70;100744.00;;;;5049675;28;20266;-39
2022/01/10 05:23:57;;;;;;;4.93;3.10;;;14.50;56.70;15.60;100753.00;;;;5045013;28;20248;-39
2022/01/10 05:26:23;;;;;;;3.53;2.73;;;14.40;56.90;15.60;100759.00;;;;5035730;28;20185;-39
2022/01/10 05:28:49;;;;;;;4.50;2.90;;;14.50;57.20;15.60;100759.00;;;;5026770;28;20199;-39
2022/01/10 05:31:14;;;;;;;5.07;3.03;;;14.40;57.10;15.60;100767.00;;;;5026721;28;20856;-39
2022/01/10 05:33:40;;;;;;;5.23;3.10;;;14.40;57.10;15.60;100771.00;;;;5027625;28;20671;-38
2022/01/10 05:36:06;;;;;;;4.50;2.90;;;14.40;57.10;15.60;100776.00;;;;5027809;28;20167;-39
2022/01/10 05:38:32;;;;;;;5.43;3.10;;;14.40;57.10;15.50;100789.00;;;;5027615;28;20206;-39
2022/01/10 05:40:57;;;;;;;3.80;2.80;;;14.40;57.10;15.50;100802.00;;;;5027690;28;20222;-39
2022/01/10 05:43:23;;;;;;;4.03;2.60;;;14.40;57.30;15.50;100807.00;;;;5027079;28;20227;-38
2022/01/10 05:45:49;;;;;;;7.50;2.73;;;14.40;57.40;15.50;100809.00;;;;5026994;28;20175;-38
2022/01/10 05:48:21;;;;;;;3.00;2.70;;;14.30;57.20;15.40;100732.00;;;;5027511;28;20207;-39
2022/01/10 05:50:47;;;;;;;5.00;2.90;;;14.30;57.00;15.40;100826.00;;;;5027872;28;20162;-39
2022/01/10 05:53:13;;;;;;;3.50;2.80;;;14.40;56.80;15.40;100820.00;;;;5026337;28;20171;-39
2022/01/10 05:55:39;;;;;;;3.73;3.37;;;14.40;56.60;15.40;100833.00;;;;5025040;28;20552;-39
2022/01/10 05:58:05;;;;;;;3.40;3.10;;;14.40;56.70;15.40;100820.00;;;;5027591;28;20191;-38
2022/01/10 06:00:32;;;;;;;5.37;2.83;;;14.30;56.30;15.40;100844.00;;;;5028750;28;20178;-39
2022/01/10 06:02:57;;;;;;;3.87;2.67;;;14.30;56.80;15.30;100835.00;;;;5027412;28;20173;-39
2022/01/10 06:05:29;;;;;;;3.87;3.10;;;14.30;56.60;15.30;100849.00;;;;5026766;28;20552;-39
2022/01/10 06:07:55;;;;;;;7.30;2.80;;;14.40;56.70;15.30;100852.00;;;;5027345;28;20226;-40
2022/01/10 06:10:20;;;;;;;4.67;2.87;;;14.50;56.50;15.40;100868.00;;;;5027183;28;20166;-39
2022/01/10 06:12:46;;;;;;;3.77;2.80;;;14.70;56.30;15.50;100864.00;;;;5043494;28;20170;-39
2022/01/10 06:15:12;;;;;;;2.87;2.57;;;15.00;56.40;15.60;100867.00;;;;5044625;28;20182;-39
2022/01/10 06:17:37;;;;;;;2.80;2.60;;;15.20;56.00;15.70;100880.00;;;;5046887;28;20481;-40
2022/01/10 06:20:04;;;;;;;3.60;2.60;;;15.40;55.80;15.80;100883.00;;;;5047247;28;20224;-39
2022/01/10 06:22:30;;;;;;;4.13;3.00;;;15.70;55.50;16.00;100881.00;;;;5046256;28;20170;-39
2022/01/10 06:24:56;;;;;;;2.80;2.60;;;16.00;55.10;16.20;100892.00;;;;5047951;28;20854;-39
2022/01/10 06:27:21;;;;;;;3.37;2.60;;;16.20;54.90;16.30;100893.00;;;;5047645;28;20690;-39
2022/01/10 06:29:47;;;;;;;2.60;2.40;;;16.40;54.90;16.50;100901.00;;;;5047083;28;20611;-39
2022/01/10 06:32:13;;;;;;;3.00;2.40;;;16.50;54.80;16.60;100908.00;;;;5046460;28;20176;-39
2022/01/10 06:34:38;;;;;;;3.33;2.43;;;16.60;54.60;16.70;100895.00;;;;5046599;28;20482;-39
2022/01/10 06:37:04;;;;;;;2.60;2.40;;;16.70;54.60;16.80;100903.00;;;;5046898;28;20867;-39
2022/01/10 06:39:30;;;;;;;2.63;2.43;;;16.80;54.70;16.90;100916.00;;;;5045034;28;20209;-40
2022/01/10 06:41:55;;;;;;;2.60;2.40;;;16.80;55.10;17.00;100911.00;;;;5046410;28;20249;-39
2022/01/10 06:44:21;;;;;;;2.70;2.50;;;16.90;54.60;17.10;100918.00;;;;5046904;28;20818;-38
2022/01/10 06:46:47;;;;;;;2.80;2.53;;;17.00;54.70;17.20;100909.00;;;;5046012;28;20190;-39
2022/01/10 06:49:13;;;;;;;2.93;2.63;;;17.00;54.60;17.30;100926.00;;;;5046316;28;20166;-40
2022/01/10 06:51:38;;;;;;;2.60;2.40;;;17.10;54.60;17.30;100929.00;;;;5045989;28;20170;-39
2022/01/10 06:54:04;;;;;;;2.70;2.50;;;17.10;54.60;17.40;100932.00;;;;5045755;28;20162;-39
2022/01/10 06:56:30;;;;;;;2.70;2.50;;;17.20;54.70;17.40;100939.00;;;;5045992;28;20520;-40
2022/01/10 06:58:55;;;;;;;2.60;2.40;;;17.20;54.70;17.50;100951.00;;;;5045148;28;20190;-39
2022/01/10 07:01:21;;;;;;;2.53;2.33;;;17.20;54.80;17.50;100956.00;;;;5045978;28;20170;-39
2022/01/10 07:03:47;;;;;;;2.57;2.37;;;17.20;54.80;17.50;100964.00;;;;5045715;28;20256;-39
2022/01/10 07:06:14;;;;;;;2.50;2.30;;;17.20;54.90;17.60;100968.00;;;;5053585;28;20166;-39
2022/01/10 07:08:39;;;;;;;2.50;2.30;;;17.20;55.00;17.60;100965.00;;;;5051125;28;20285;-40
2022/01/10 07:11:05;;;;;;;2.43;2.23;;;17.10;55.00;17.60;100966.00;;;;5047345;28;20552;-38
2022/01/10 07:13:31;;;;;;;2.40;2.20;;;17.10;55.00;17.50;100978.00;;;;5046929;28;20687;-39
2022/01/10 07:15:57;;;;;;;3.40;2.23;;;17.00;55.80;17.50;100985.00;;;;5047668;28;20214;-39
2022/01/10 07:18:22;;;;;;;2.37;2.17;;;17.00;55.30;17.50;100993.00;;;;5047836;28;20198;-39
2022/01/10 07:20:48;;;;;;;2.70;2.50;;;17.00;55.40;17.50;100998.00;;;;5044357;28;20720;-39
2022/01/10 07:23:14;;;;;;;2.50;2.30;;;16.90;55.40;17.50;100997.00;;;;5045588;28;20159;-39
2022/01/10 07:25:39;;;;;;;2.70;2.50;;;16.90;55.50;17.50;101006.00;;;;5045075;28;20586;-39
2022/01/10 07:28:05;;;;;;;2.30;2.10;;;16.90;55.60;17.50;101020.00;;;;5045506;28;20202;-39
2022/01/10 07:30:31;;;;;;;2.70;2.50;;;16.90;55.70;17.50;101031.00;;;;5045342;28;20224;-39
2022/01/10 07:32:57;;;;;;;2.50;2.30;;;16.80;55.70;17.40;101028.00;;;;5044797;28;20169;-39
2022/01/10 07:35:22;;;;;;;2.67;2.47;;;16.80;55.80;17.40;101032.00;;;;5045246;28;20697;-38
2022/01/10 07:37:48;;;;;;;2.60;2.40;;;16.70;55.80;17.40;101033.00;;;;5045561;28;20190;-38
2022/01/10 07:40:14;;;;;;;2.70;2.50;;;16.70;55.80;17.30;101037.00;;;;5045536;28;20174;-39
2022/01/10 07:42:40;;;;;;;2.50;2.30;;;16.60;56.00;17.30;101050.00;;;;5044768;28;20197;-40
2022/01/10 07:45:06;;;;;;;2.50;2.30;;;16.60;56.00;17.30;101047.00;;;;5048173;28;20170;-38
2022/01/10 07:47:32;;;;;;;2.50;2.30;;;16.60;56.80;17.30;101053.00;;;;5045346;28;20240;-39
2022/01/10 07:49:58;;;;;;;2.50;2.30;;;16.60;56.10;17.20;101069.00;;;;5045812;28;20163;-38
2022/01/10 07:52:26;;;;;;;2.53;2.33;;;16.50;56.00;17.20;101070.00;;;;5048961;28;20193;-40
2022/01/10 07:54:52;;;;;;;2.60;2.40;;;16.60;56.00;17.30;101071.00;;;;5048546;28;20686;-39
2022/01/10 07:57:18;;;;;;;2.60;2.40;;;16.80;56.20;17.30;101070.00;;;;5049182;28;20587;-39
2022/01/10 07:59:44;;;;;;;2.50;2.30;;;16.90;55.80;17.40;101080.00;;;;5049638;28;20167;-39
2022/01/10 08:02:10;;;;;;;2.70;2.50;;;17.20;55.50;17.50;101099.00;;;;5048868;28;20178;-39
2022/01/10 08:04:36;;;;;;;2.63;2.40;;;17.20;55.30;17.60;101094.00;;;;5049085;28;20182;-39
2022/01/10 08:07:03;;;;;;;2.47;2.27;;;17.30;55.20;17.70;101102.00;;;;5048819;28;20293;-39
2022/01/10 08:09:29;;;;;;;2.73;2.50;;;17.40;55.00;17.70;101117.00;;;;5049114;28;20178;-39
2022/01/10 08:11:59;;;;;;;2.50;2.30;;;17.50;55.00;17.80;101102.00;;;;5048534;28;20179;-38
2022/01/10 08:14:28;;;;;;;2.60;2.40;;;17.50;55.00;17.80;101112.00;;;;5049722;28;20178;-40
2022/01/10 08:16:54;;;;;;;2.60;2.40;;;17.50;55.00;17.90;101119.00;;;;5048795;28;20178;-38
2022/01/10 08:19:20;;;;;;;2.40;2.20;;;17.50;55.00;17.90;101126.00;;;;5046704;28;20205;-39
2022/01/10 08:21:46;;;;;;;2.70;2.50;;;17.50;55.00;17.90;101131.00;;;;5041660;28;20189;-39
2022/01/10 08:24:11;;;;;;;2.63;2.43;;;17.40;55.00;17.90;101129.00;;;;5051661;28;20167;-39
2022/01/10 08:26:37;;;;;;;2.60;2.40;;;17.40;55.10;17.90;101130.00;;;;5051799;28;20332;-39
2022/01/10 08:29:03;;;;;;;2.77;2.57;;;17.50;55.30;17.70;101138.00;;;;5051798;28;20197;-39
2022/01/10 08:31:30;;;;;;;2.60;2.40;;;17.40;55.50;17.90;101148.00;;;;5050841;28;20171;-39
2022/01/10 08:33:55;;;;;;;2.60;2.40;;;17.40;55.40;17.90;101151.00;;;;5051219;28;20170;-39
2022/01/10 08:36:21;;;;;;;2.40;2.20;;;17.30;55.30;17.90;101159.00;;;;5051546;28;20178;-40
2022/01/10 08:38:47;;;;;;;2.83;2.57;;;17.30;55.40;17.80;101153.00;;;;5051225;28;20198;-39
2022/01/10 08:41:13;;;;;;;2.60;2.37;;;17.20;55.40;17.80;101153.00;;;;5051016;28;20171;-39
2022/01/10 08:43:38;;;;;;;2.80;2.57;;;17.20;55.50;17.80;101158.00;;;;5051055;28;20177;-40
2022/01/10 08:46:04;;;;;;;2.73;2.53;;;17.20;55.60;17.80;101169.00;;;;5048356;28;20174;-39
2022/01/10 08:48:30;;;;;;;2.97;2.67;;;17.10;55.60;17.80;101170.00;;;;5052759;28;20190;-39
2022/01/10 08:50:55;;;;;;;3.10;2.70;;;17.10;55.70;17.70;101167.00;;;;5060654;28;20155;-39
2022/01/10 08:53:21;;;;;;;2.70;2.50;;;17.00;55.70;17.70;101177.00;;;;5051369;28;20165;-39
2022/01/10 08:55:47;;;;;;;2.90;2.60;;;17.00;55.70;17.70;101181.00;;;;5050095;28;20193;-39
2022/01/10 08:58:13;;;;;;;2.80;2.60;;;16.90;55.80;17.60;101179.00;;;;5053998;28;20201;-40
2022/01/10 09:00:39;;;;;;;2.50;2.30;;;16.90;55.90;17.60;101185.00;;;;5055659;28;20174;-38
2022/01/10 09:03:05;;;;;;;2.70;2.50;;;16.90;56.00;17.60;101190.00;;;;5052246;28;20155;-39
2022/01/10 09:05:32;;;;;;;2.67;2.47;;;16.80;56.00;17.50;101195.00;;;;5052133;28;20589;-39
2022/01/10 09:07:59;;;;;;;2.90;2.70;;;16.80;56.10;17.50;101193.00;;;;5052925;28;20206;-39
2022/01/10 09:10:26;;;;;;;3.13;2.83;;;16.70;56.10;17.50;101202.00;;;;5052176;28;20166;-40
2022/01/10 09:12:52;;;;;;;2.70;2.50;;;16.70;56.20;17.40;101198.00;;;;5051901;28;20714;-39
2022/01/10 09:15:18;;;;;;;3.03;2.80;;;16.70;56.20;17.40;101199.00;;;;5050910;28;20236;-38
2022/01/10 09:17:44;;;;;;;2.83;2.63;;;16.60;56.00;17.40;101204.00;;;;5050904;28;20354;-39
2022/01/10 09:20:10;;;;;;;3.10;2.80;;;16.60;56.00;17.30;101208.00;;;;5050915;28;20186;-39
2022/01/10 09:22:35;;;;;;;3.10;2.80;;;16.60;56.40;17.30;101229.00;;;;5049753;28;20178;-39
2022/01/10 09:25:01;;;;;;;2.60;2.40;;;16.50;56.20;17.30;101220.00;;;;5050138;28;20236;-39
2022/01/10 09:27:27;;;;;;;3.50;2.60;;;16.50;56.40;17.30;101230.00;;;;5050445;28;20217;-39
2022/01/10 09:29:53;;;;;;;2.90;2.60;;;16.60;57.00;17.30;101228.00;;;;5050642;28;20167;-40
2022/01/10 09:32:18;;;;;;;3.20;2.90;;;16.60;56.90;17.30;101237.00;;;;5050455;28;20170;-39
2022/01/10 09:34:44;;;;;;;3.30;3.00;;;16.80;56.70;17.40;101242.00;;;;5049519;28;20181;-39
2022/01/10 09:37:10;;;;;;;3.03;2.77;;;17.00;56.40;17.50;101239.00;;;;5050348;28;20190;-39
2022/01/10 09:39:36;;;;;;;2.83;2.63;;;17.30;56.20;17.70;101247.00;;;;5050560;28;20174;-40
2022/01/10 09:42:01;;;;;;;2.93;2.70;;;17.60;55.80;17.80;101238.00;;;;5050260;28;20197;-38
2022/01/10 09:44:27;;;;;;;5.90;2.80;;;17.80;55.70;18.00;101235.00;;;;5049335;28;20658;-40
2022/01/10 09:46:53;;;;;;;4.30;2.73;;;17.90;55.60;18.10;101239.00;;;;5043486;28;20694;-39
2022/01/10 09:49:19;;;;;;;3.57;2.70;;;17.90;55.30;18.10;101235.00;;;;5030981;28;20195;-39
2022/01/10 09:51:45;;;;;;;4.30;3.00;;;18.00;55.40;18.20;101228.00;;;;5030328;28;20652;-39
2022/01/10 09:54:11;;;;;;;4.13;2.70;;;18.00;55.40;18.30;101246.00;;;;5029769;28;20159;-40
2022/01/10 09:56:36;;;;;;;3.30;2.60;;;18.00;55.40;18.30;101254.00;;;;5035438;28;20182;-40
2022/01/10 09:59:02;;;;;;;4.20;3.00;;;18.00;55.50;18.30;101246.00;;;;5032671;28;20654;-38
2022/01/10 10:01:30;;;;;;;3.10;2.80;;;18.00;55.60;18.30;101254.00;;;;5029549;28;20162;-39
2022/01/10 10:03:58;;;;;;;3.20;2.90;;;18.00;55.70;18.30;101271.00;;;;5027899;28;20189;-39
2022/01/10 10:06:26;;;;;;;3.63;2.80;;;17.90;55.70;18.40;101270.00;;;;5029721;28;20163;-39
2022/01/10 10:08:51;;;;;;;5.57;2.80;;;17.90;55.70;18.40;101275.00;;;;5028608;28;20205;-39
2022/01/10 10:11:17;;;;;;;5.23;2.80;;;17.90;55.70;18.40;101285.00;;;;5029847;28;20171;-40
2022/01/10 10:13:56;;;;;;;3.43;2.90;;;18.00;55.80;18.40;101288.00;;;;5028904;28;20184;-40
2022/01/10 10:16:22;;;;;;;4.50;3.07;;;17.90;55.80;18.30;101305.00;;;;5029166;28;20151;-39
2022/01/10 10:18:48;;;;;;;7.47;3.20;;;17.80;56.10;18.30;101302.00;;;;5029686;28;20220;-38
2022/01/10 10:21:17;;;;;;;4.97;3.50;;;17.70;56.00;18.30;101304.00;;;;5030671;28;20216;-44
2022/01/10 10:23:46;;;;;;;7.73;3.83;;;17.70;55.70;18.30;101311.00;;;;5029210;28;20163;-40
2022/01/10 10:26:21;;;;;;;3.67;3.23;;;17.70;55.50;18.20;101306.00;;;;5029512;28;20206;-41
2022/01/10 10:28:47;;;;;;;4.17;3.33;;;17.70;56.00;18.20;101316.00;;;;5038103;28;20942;-39
2022/01/10 10:31:22;;;;;;;4.27;3.50;;;17.60;55.30;18.20;101332.00;;;;5048421;28;20172;-41
2022/01/10 10:33:49;;;;;;;11.23;3.83;;;17.60;55.50;18.20;101319.00;;;;5047460;28;20204;-39
2022/01/10 10:36:15;;;;;;;4.93;3.43;;;17.60;55.50;18.20;101319.00;;;;5048931;28;20165;-39
2022/01/10 10:38:41;;;;;;;4.73;3.43;;;17.50;55.60;18.20;101315.00;;;;5048613;28;20554;-39
2022/01/10 10:41:06;;;;;;;5.50;3.07;;;17.50;55.70;18.20;101311.00;;;;5049322;28;20182;-39
2022/01/10 10:43:34;;;;;;;5.70;3.37;;;17.50;55.80;18.10;101320.00;;;;5048953;28;20181;-39
2022/01/10 10:46:01;;;;;;;4.67;3.47;;;17.50;55.80;18.10;101317.00;;;;5049049;28;20175;-39
2022/01/10 10:48:27;;;;;;;3.57;3.00;;;17.40;55.90;18.10;101326.00;;;;5048723;28;20293;-39
2022/01/10 10:50:54;;;;;;;4.30;3.23;;;17.50;56.00;18.10;101332.00;;;;5050280;28;20265;-39
2022/01/10 10:53:20;;;;;;;3.87;3.30;;;17.40;56.00;18.00;101322.00;;;;5050889;28;20170;-39